• pl
  • eng

Awiacja
Kliknij na pogrubioną czerwoną nazwę, aby odkodować depeszę. 07:31 18.02.2018
  • WIND
  • SIGNIFICANT EURO
  • SIGNIFICANT
  • SIGMET
  • AIRMET
  • TAF FC
  • TAF FT
  • METAR GG30
  • METAR GG00


METAR EPBY 180630Z 29004KT 6000 BKN002 OVC004 M05/M05 Q1027 =

METAR EPGD 180630Z 29002KT 8000 SCT041 M03/M04 Q1026 =

METAR EPKK 180630Z 34007KT 9999 BKN030 01/M03 Q1024 =

METAR EPKT 180630Z VRB01KT 4300 BR FEW008 SCT032 OVC037 M01/M02 Q1024
REFZRA =

METAR EPLB 180630Z 31006KT 4000 -SN BR BKN007 OVC016 00/M00 Q1022 =

METAR EPLL 180630Z 31004KT 280V340 8000 -SN BKN008 BKN011 M00/M02
Q1025 =

METAR EPMO 180630Z 29005KT CAVOK M02/M03 Q1025 =

METAR EPPO 180630Z 27003KT 0650 R28/0550 FZFG FEW010 M04/M04 Q1027 =

METAR EPRA 180630Z 34008KT 8000 SCT009 OVC020 M00/M01 Q1024=

METAR EPRZ 180630Z 26006KT 3400 -SN BR SCT030 OVC035 M02/M03 Q1023 =

METAR EPSC 180630Z 29003KT 9999 SCT031 OVC036 M00/M01 Q1028 =

METAR EPSY 180630Z NIL=

METAR EPWA 180630Z 31004KT 9999 FEW016 M02/M04 Q1024 NOSIG=

METAR EPWR 180630Z 33006KT 9000 SCT008 BKN013 00/M01 Q1027 =

METAR EPZG 180630Z VRB01KT 9999 MIFG FEW033 M03/M03 Q1028 =
Awiacja.imgw.pl jest pogodowym serwisem informacyjnym
Instytutu Meteorologii i Gospodarki Wodnej Państwowego Instytutu Badawczego.
Copyright IMGW PIB 2009-2011© Wszelkie prawa zastrzeżone.